East Poestenkill, New York
Current Conditions -  °F | °C
As of 3:51 PM on Sunday 21 Dec 2014 (Local Time) from KALB Reporting Station
Overcast Overcast  
Wind Chill: -1°   Ceiling: 3000
Heat Index: -1°   Visibility: 10mi
Dew Point: -5°   Wind: 3mph
Humidity: 72%   Direction: 60°ENE
Pressure: 30.32"   Gusts: NA
Location:  42.6497°N, 73.5273°W
Report Text: KALB 212051Z 06003KT 10SM BKN030 OVC038 M01/M05 A3032 RMK AO2 SLP272 60000 T10061050 58000
Loading
Personal Weather Stations






























Interactive Weather Map New forecast layout! Learn more

10-Day Weather Forecast

Advertisements
Track Severe Weather on mobile